Time;durP1;ratioP1;P1;durP2;ratioP2;P2;SDS_P1;SDS_P2;PMS_P1;PMS_P2;Temp;Humidity;BMP_temperature;BMP_pressure;BME280_temperature;BME280_humidity;BME280_pressure;Samples;Min_cycle;Max_cycle;Signal;HPM_P1;HPM_P2
2022/11/04 00:01:42;;;;;;;1.63;0.97;;;12.50;99.90;;;;;;6270981;22;20017;-83
2022/11/04 00:04:08;;;;;;;2.80;1.07;;;12.50;99.90;;;;;;6244945;22;20544;-83
2022/11/04 00:06:35;;;;;;;2.92;1.25;;;12.50;99.90;;;;;;6273201;22;20054;-83
2022/11/04 00:09:03;;;;;;;2.00;1.00;;;12.50;99.90;;;;;;6245827;22;20379;-83
2022/11/04 00:14:14;;;;;;;1.43;0.80;;;12.50;99.90;;;;;;6273023;22;20378;-84
2022/11/04 00:33:49;;;;;;;2.87;1.27;;;12.40;99.90;;;;;;6271138;22;20004;-83
2022/11/04 00:36:14;;;;;;;3.57;1.33;;;12.40;99.90;;;;;;6245844;22;20095;-83
2022/11/04 00:38:40;;;;;;;3.63;1.77;;;12.30;99.90;;;;;;6272376;22;20413;-83
2022/11/04 00:41:24;;;;;;;4.17;1.50;;;12.30;99.90;;;;;;6245799;22;20010;-83
2022/11/04 00:43:54;;;;;;;4.37;1.57;;;12.30;99.90;;;;;;6272670;22;20007;-84
2022/11/04 00:46:20;;;;;;;2.63;1.27;;;12.30;99.90;;;;;;6273049;22;20422;-83
2022/11/04 00:48:46;;;;;;;3.67;1.50;;;12.30;99.90;;;;;;6271014;22;20020;-83
2022/11/04 00:51:11;;;;;;;3.83;1.87;;;12.40;99.90;;;;;;6273215;22;20431;-84
2022/11/04 00:53:37;;;;;;;3.87;1.90;;;12.30;99.90;;;;;;6272691;22;20010;-83
2022/11/04 00:56:03;;;;;;;4.47;2.27;;;12.30;99.90;;;;;;6274374;22;20008;-84
2022/11/04 00:58:29;;;;;;;5.20;2.40;;;12.30;99.90;;;;;;6274534;22;20003;-83
2022/11/04 01:00:55;;;;;;;4.13;2.43;;;12.30;99.90;;;;;;6273412;22;20438;-83
2022/11/04 01:03:20;;;;;;;3.93;2.33;;;12.30;99.90;;;;;;6246983;22;20061;-84
2022/11/04 01:05:47;;;;;;;6.50;3.10;;;12.30;99.90;;;;;;6274319;22;20012;-83
2022/11/04 01:08:13;;;;;;;7.70;3.00;;;12.30;99.90;;;;;;6274908;22;20081;-83
2022/11/04 01:10:43;;;;;;;5.77;3.17;;;12.20;99.90;;;;;;6247364;22;20053;-83
2022/11/04 01:13:10;;;;;;;4.93;2.73;;;12.20;99.90;;;;;;6274787;22;20065;-84
2022/11/04 01:15:36;;;;;;;6.67;2.70;;;12.20;99.90;;;;;;6274262;22;20442;-84
2022/11/04 01:18:03;;;;;;;5.37;2.60;;;12.20;99.90;;;;;;6274726;22;20054;-84
2022/11/04 01:20:30;;;;;;;4.83;2.80;;;12.20;99.90;;;;;;6273786;22;20015;-84
2022/11/04 01:22:56;;;;;;;5.57;3.20;;;12.20;99.90;;;;;;6274623;22;20007;-84
2022/11/04 01:25:21;;;;;;;6.03;3.40;;;12.20;99.90;;;;;;6274391;22;20102;-84
2022/11/04 01:27:47;;;;;;;6.70;3.47;;;12.20;99.90;;;;;;6274655;22;20004;-84
2022/11/04 01:30:13;;;;;;;6.37;3.30;;;12.20;99.90;;;;;;6274397;22;20010;-84
2022/11/04 01:32:39;;;;;;;8.00;3.80;;;12.20;99.90;;;;;;6274646;22;20078;-84
2022/11/04 01:35:06;;;;;;;7.20;4.10;;;12.20;99.90;;;;;;6273480;22;20499;-84
2022/11/04 01:37:32;;;;;;;8.07;4.43;;;12.20;99.90;;;;;;6274843;22;20007;-84
2022/11/04 01:39:58;;;;;;;8.50;4.10;;;12.20;99.90;;;;;;6274310;22;20422;-84
2022/11/04 01:42:24;;;;;;;8.90;4.40;;;12.20;99.90;;;;;;6274641;22;20087;-84
2022/11/04 01:44:56;;;;;;;8.20;4.00;;;12.20;99.90;;;;;;6274319;22;20003;-84
2022/11/04 01:47:40;;;;;;;10.17;3.73;;;12.20;99.90;;;;;;6272735;22;20036;-84
2022/11/04 01:50:13;;;;;;;7.60;3.43;;;12.20;99.90;;;;;;6271607;22;20019;-84
2022/11/04 01:52:51;;;;;;;8.73;3.60;;;12.20;99.90;;;;;;6245895;22;20406;-83
2022/11/04 01:55:21;;;;;;;7.67;3.23;;;12.20;99.90;;;;;;6274218;22;20035;-83
2022/11/04 01:57:49;;;;;;;7.55;3.83;;;12.20;99.90;;;;;;6246143;22;20003;-83
2022/11/04 02:00:16;;;;;;;5.47;3.30;;;12.20;99.90;;;;;;6273708;22;20003;-83
2022/11/04 02:03:04;;;;;;;10.00;3.47;;;12.20;99.90;;;;;;6274405;22;20003;-83
2022/11/04 02:05:31;;;;;;;9.23;3.58;;;12.20;99.90;;;;;;6246661;22;20008;-83
2022/11/04 02:08:00;;;;;;;10.17;4.23;;;12.20;99.90;;;;;;6273947;22;20422;-83
2022/11/04 02:10:28;;;;;;;8.45;3.97;;;12.20;99.90;;;;;;6274238;22;20011;-83
2022/11/04 02:12:55;;;;;;;9.87;3.73;;;12.20;99.90;;;;;;6247693;22;20080;-84
2022/11/04 02:16:00;;;;;;;10.63;4.30;;;12.10;99.90;;;;;;6247162;22;20000;-83
2022/11/04 02:18:58;;;;;;;10.30;4.27;;;12.10;99.90;;;;;;6273058;22;20039;-83
2022/11/04 02:22:00;;;;;;;7.10;3.43;;;12.00;99.90;;;;;;6274427;22;20027;-83
2022/11/04 02:25:22;;;;;;;5.73;2.97;;;12.10;99.90;;;;;;6191102;22;20266;-83
2022/11/04 02:28:32;;;;;;;5.27;2.37;;;12.00;99.90;;;;;;6120608;23;20017;-83
2022/11/04 02:31:04;;;;;;;3.40;2.10;;;12.00;99.90;;;;;;6121092;23;20010;-83
2022/11/04 02:34:19;;;;;;;5.47;2.33;;;12.00;99.90;;;;;;6218661;22;20012;-83
2022/11/04 02:37:05;;;;;;;4.53;2.33;;;12.00;99.90;;;;;;6262233;22;20080;-82
2022/11/04 02:39:46;;;;;;;4.70;2.30;;;11.90;99.90;;;;;;6196602;22;20061;-83
2022/11/04 02:42:16;;;;;;;5.00;1.97;;;11.90;99.90;;;;;;6246861;22;20013;-83
2022/11/04 02:44:57;;;;;;;7.77;2.03;;;11.90;99.90;;;;;;6274196;22;20110;-83
2022/11/04 02:47:27;;;;;;;6.33;1.93;;;11.90;99.90;;;;;;6273655;22;20012;-83
2022/11/04 02:50:10;;;;;;;4.83;1.87;;;11.80;99.90;;;;;;6245754;22;20018;-83
2022/11/04 02:52:54;;;;;;;7.90;2.33;;;11.80;99.90;;;;;;6274023;22;20019;-83
2022/11/04 02:55:29;;;;;;;4.73;1.60;;;11.80;99.90;;;;;;6246436;22;20007;-83
2022/11/04 02:57:58;;;;;;;5.23;1.73;;;11.80;99.90;;;;;;6246499;22;20578;-83
2022/11/04 03:00:24;;;;;;;4.72;1.58;;;11.80;99.90;;;;;;6273398;22;20003;-83
2022/11/04 03:03:08;;;;;;;5.13;1.53;;;11.80;99.90;;;;;;6273579;22;20003;-83
2022/11/04 03:05:37;;;;;;;3.80;1.53;;;11.70;99.90;;;;;;6271277;22;20065;-86
2022/11/04 03:08:09;;;;;;;5.97;1.50;;;11.70;99.90;;;;;;6221561;22;20012;-86
2022/11/04 03:10:39;;;;;;;3.20;1.20;;;11.70;99.90;;;;;;6246179;22;20010;-86
2022/11/04 03:13:14;;;;;;;4.63;1.80;;;11.70;99.90;;;;;;6273767;22;20178;-86
2022/11/04 03:15:52;;;;;;;3.13;1.20;;;11.70;99.90;;;;;;6246969;22;20079;-86
2022/11/04 03:18:35;;;;;;;4.90;1.50;;;11.60;99.90;;;;;;6245736;22;20011;-86
2022/11/04 03:21:08;;;;;;;5.10;1.40;;;11.60;99.90;;;;;;6274130;22;20063;-86
2022/11/04 03:23:34;;;;;;;6.43;1.80;;;11.60;99.90;;;;;;6273479;22;20057;-86
2022/11/04 03:26:26;;;;;;;5.20;1.60;;;11.60;99.90;;;;;;6271739;22;20012;-86
2022/11/04 03:29:07;;;;;;;4.30;1.20;;;11.50;99.90;;;;;;6272971;22;20008;-86
2022/11/04 03:32:02;;;;;;;6.80;1.53;;;11.60;99.90;;;;;;6273399;22;20079;-86
2022/11/04 03:34:28;;;;;;;3.77;1.63;;;11.50;99.90;;;;;;6258718;22;20014;-86
2022/11/04 03:36:55;;;;;;;5.03;1.50;;;11.60;99.90;;;;;;6246757;22;20011;-86
2022/11/04 03:39:20;;;;;;;4.87;1.10;;;11.60;99.90;;;;;;6273093;22;20078;-86
2022/11/04 03:41:52;;;;;;;4.23;1.20;;;11.50;99.90;;;;;;6221289;22;20422;-84
2022/11/04 03:44:18;;;;;;;3.93;1.10;;;11.60;99.90;;;;;;6273587;22;20007;-86
2022/11/04 03:46:44;;;;;;;6.17;1.83;;;11.60;99.90;;;;;;6272894;22;20053;-86
2022/11/04 03:49:11;;;;;;;6.30;1.67;;;11.50;99.90;;;;;;6271145;22;20365;-86
2022/11/04 03:51:36;;;;;;;5.77;1.50;;;11.50;99.90;;;;;;6273973;22;20003;-86
2022/11/04 03:54:03;;;;;;;4.30;1.30;;;11.50;99.90;;;;;;6246476;22;20331;-86
2022/11/04 03:57:00;;;;;;;3.47;1.27;;;11.50;99.90;;;;;;6273390;22;20008;-85
2022/11/04 03:59:31;;;;;;;9.13;1.70;;;11.50;99.90;;;;;;6202272;22;20011;-86
2022/11/04 04:02:09;;;;;;;8.30;1.87;;;11.40;99.90;;;;;;6245960;22;20008;-86
2022/11/04 04:04:52;;;;;;;5.07;1.20;;;11.40;99.90;;;;;;6272740;22;20068;-86
2022/11/04 04:07:50;;;;;;;7.33;1.30;;;11.40;99.90;;;;;;6273748;22;20088;-86
2022/11/04 04:10:40;;;;;;;6.50;1.30;;;11.40;99.90;;;;;;6271832;22;20519;-86
2022/11/04 04:13:19;;;;;;;6.67;1.87;;;11.40;99.90;;;;;;6273602;22;20011;-86
2022/11/04 04:16:03;;;;;;;5.05;1.02;;;11.40;99.90;;;;;;6273118;22;20000;-86
2022/11/04 04:18:35;;;;;;;5.57;1.40;;;11.30;99.90;;;;;;6272087;22;20008;-86
2022/11/04 04:21:05;;;;;;;5.13;1.20;;;11.30;99.90;;;;;;6273813;22;20065;-86
2022/11/04 04:29:13;;;;;;;4.80;1.27;;;11.30;99.90;;;;;;6236960;22;20382;-86
2022/11/04 04:31:56;;;;;;;7.23;1.40;;;11.30;99.90;;;;;;6273151;22;20011;-86
2022/11/04 04:37:36;;;;;;;6.90;1.20;;;11.30;99.90;;;;;;6270966;22;20449;-90
2022/11/04 04:45:55;;;;;;;4.67;1.33;;;11.30;99.90;;;;;;6274316;22;20011;-89
2022/11/04 04:48:53;;;;;;;7.60;1.73;;;11.30;99.90;;;;;;6226429;22;20020;-88
2022/11/04 05:48:07;;;;;;;11.67;2.33;;;10.90;99.90;;;;;;6236662;22;20038;-86
2022/11/04 05:54:27;;;;;;;9.40;2.00;;;10.80;99.90;;;;;;6276406;22;20061;-89
2022/11/04 05:56:53;;;;;;;5.00;1.60;;;10.80;99.90;;;;;;6246107;23;20000;-86
2022/11/04 06:11:33;;;;;;;8.13;1.83;;;10.80;99.90;;;;;;6242099;22;20115;-87
2022/11/04 06:14:01;;;;;;;8.00;1.80;;;10.80;99.90;;;;;;6248907;22;20007;-85
2022/11/04 06:16:27;;;;;;;6.40;1.80;;;10.70;99.90;;;;;;6247778;22;20003;-86
2022/11/04 06:18:53;;;;;;;7.57;2.10;;;10.70;99.90;;;;;;6245089;22;20042;-85
2022/11/04 06:21:24;;;;;;;5.90;2.47;;;10.70;99.90;;;;;;6247715;22;20007;-86
2022/11/04 06:23:51;;;;;;;10.93;2.20;;;10.70;99.90;;;;;;6274274;22;20008;-86
2022/11/04 06:26:17;;;;;;;8.53;2.17;;;10.60;99.90;;;;;;6274204;22;20038;-85
2022/11/04 06:28:43;;;;;;;10.80;2.20;;;10.50;99.90;;;;;;6272368;22;20063;-86
2022/11/04 06:31:11;;;;;;;9.00;2.17;;;10.50;99.90;;;;;;6274089;22;20371;-85
2022/11/04 06:33:37;;;;;;;11.03;2.20;;;10.50;99.90;;;;;;6246467;22;20018;-86
2022/11/04 06:36:05;;;;;;;63.90;32.73;;;10.50;99.90;;;;;;6274658;22;20323;-85
2022/11/04 06:38:33;;;;;;;17.03;7.23;;;10.50;99.90;;;;;;6247427;22;20057;-85
2022/11/04 06:40:59;;;;;;;10.53;4.33;;;10.50;99.90;;;;;;6274894;22;20077;-85
2022/11/04 06:43:24;;;;;;;9.03;2.77;;;10.50;99.90;;;;;;6272577;22;20593;-85
2022/11/04 06:45:54;;;;;;;9.87;2.70;;;10.60;99.90;;;;;;6247690;22;20090;-85
2022/11/04 06:48:20;;;;;;;6.93;2.27;;;10.60;99.90;;;;;;6274060;22;20069;-85
2022/11/04 06:50:46;;;;;;;9.83;2.90;;;10.70;99.90;;;;;;6274251;22;20007;-85
2022/11/04 06:53:12;;;;;;;9.53;2.93;;;10.60;99.90;;;;;;6275423;22;20057;-85
2022/11/04 06:55:38;;;;;;;8.37;2.60;;;10.70;99.90;;;;;;6273643;22;20388;-86
2022/11/04 06:58:03;;;;;;;8.07;2.30;;;10.80;99.90;;;;;;6248110;22;20030;-85
2022/11/04 07:00:29;;;;;;;8.70;2.30;;;10.80;99.90;;;;;;6274536;22;20086;-85
2022/11/04 07:02:55;;;;;;;8.43;2.50;;;10.80;99.90;;;;;;6272991;22;20104;-85
2022/11/04 07:05:21;;;;;;;12.50;2.43;;;10.90;99.90;;;;;;6274124;22;19996;-86
2022/11/04 07:07:47;;;;;;;9.83;2.63;;;10.90;99.90;;;;;;6275343;22;20027;-85
2022/11/04 07:10:12;;;;;;;7.13;2.00;;;10.90;99.90;;;;;;6273942;22;20012;-85
2022/11/04 07:12:38;;;;;;;5.70;2.00;;;10.90;99.90;;;;;;6272663;22;20114;-85
2022/11/04 07:15:04;;;;;;;7.50;2.20;;;10.80;99.90;;;;;;6273563;22;20042;-82
2022/11/04 07:17:33;;;;;;;8.33;2.17;;;10.80;99.90;;;;;;6273166;22;20008;-87
2022/11/04 07:28:30;;;;;;;9.77;2.50;;;11.00;99.90;;;;;;6221301;22;20067;-93
2022/11/04 07:31:50;;;;;;;;;;;;;;;;;;;;;
2022/11/04 07:36:54;;;;;;;6.63;2.47;;;11.00;99.90;;;;;;6073691;23;20019;-83
2022/11/04 07:45:58;;;;;;;8.10;2.33;;;11.20;99.90;;;;;;6264855;22;20024;-88
2022/11/04 07:48:24;;;;;;;6.70;1.83;;;11.20;99.90;;;;;;6272197;22;20158;-88
2022/11/04 07:50:54;;;;;;;6.30;1.90;;;11.20;99.90;;;;;;6246474;22;20042;-88
2022/11/04 07:53:20;;;;;;;8.13;2.10;;;11.30;99.90;;;;;;6273455;22;20090;-87
2022/11/04 07:55:49;;;;;;;5.40;1.70;;;11.30;99.90;;;;;;6272965;22;20356;-87
2022/11/04 07:58:24;;;;;;;7.72;2.20;;;11.30;99.90;;;;;;6244580;22;20004;-88
2022/11/04 08:00:56;;;;;;;10.43;2.57;;;11.30;99.90;;;;;;6220878;22;20090;-88
2022/11/04 08:03:24;;;;;;;6.30;1.83;;;11.30;99.90;;;;;;6246030;22;20027;-89
2022/11/04 08:10:49;;;;;;;5.77;1.73;;;11.20;99.90;;;;;;6191015;22;20346;-90
2022/11/04 08:13:15;;;;;;;9.50;1.87;;;11.30;99.90;;;;;;6246280;22;20004;-85
2022/11/04 08:42:34;;;;;;;8.23;1.80;;;11.70;99.90;;;;;;6214229;23;20075;-88
2022/11/04 08:45:03;;;;;;;8.90;1.67;;;11.70;99.90;;;;;;6205753;23;20116;-94
2022/11/04 08:47:32;;;;;;;7.75;1.67;;;11.70;99.90;;;;;;6186165;23;20087;-87
2022/11/04 08:54:01;;;;;;;5.83;1.80;;;11.80;99.90;;;;;;6110876;23;20132;-95
2022/11/04 08:56:36;;;;;;;8.65;1.45;;;11.90;99.90;;;;;;6124925;23;20090;-91
2022/11/04 08:59:07;;;;;;;10.00;2.27;;;11.90;99.90;;;;;;6148613;23;20016;-89
2022/11/04 09:02:21;;;;;;;12.63;2.50;;;12.00;99.90;;;;;;6124044;23;20080;-89
2022/11/04 09:07:37;;;;;;;8.43;2.40;;;12.00;99.90;;;;;;6226768;22;20101;-80
2022/11/04 09:10:04;;;;;;;7.50;1.98;;;12.10;99.90;;;;;;6237808;23;20424;-81
2022/11/04 09:12:30;;;;;;;9.00;2.53;;;12.00;99.90;;;;;;6239278;23;20006;-82
2022/11/04 09:14:56;;;;;;;7.97;2.00;;;12.00;99.90;;;;;;6240410;23;20004;-83
2022/11/04 09:17:22;;;;;;;11.13;2.78;;;11.90;99.90;;;;;;6242032;23;20050;-83
2022/11/04 09:19:50;;;;;;;7.72;2.00;;;11.90;99.90;;;;;;6242902;23;20024;-88
2022/11/04 09:22:16;;;;;;;10.45;2.20;;;12.00;99.90;;;;;;6243303;23;20066;-86
2022/11/04 09:24:43;;;;;;;6.65;2.08;;;12.00;99.90;;;;;;6215580;23;20004;-86
2022/11/04 09:27:09;;;;;;;4.95;1.83;;;11.90;99.90;;;;;;6242196;23;20035;-86
2022/11/04 09:29:35;;;;;;;10.52;2.33;;;11.90;99.90;;;;;;6242255;23;20030;-86
2022/11/04 09:32:05;;;;;;;9.15;2.30;;;11.90;99.90;;;;;;6215335;23;20008;-86
2022/11/04 09:34:31;;;;;;;;;;;11.90;99.90;;;;;;6215689;23;20438;-86
2022/11/04 09:36:57;;;;;;;15.57;2.50;;;11.90;99.90;;;;;;6240335;23;19917;-84
2022/11/04 09:39:35;;;;;;;4.60;1.80;;;11.90;99.90;;;;;;6242766;23;20038;-93
2022/11/04 09:42:01;;;;;;;8.02;2.90;;;12.00;99.90;;;;;;6242810;23;20062;-86
2022/11/04 09:44:47;;;;;;;9.93;2.50;;;12.00;99.90;;;;;;6242727;23;20000;-88
2022/11/04 09:47:29;;;;;;;6.88;2.40;;;12.10;99.90;;;;;;6242201;23;20083;-86
2022/11/04 09:50:16;;;;;;;;;;;;;;;;;;;;;
2022/11/04 09:53:36;;;;;;;;;;;;;;;;;;;;;
2022/11/04 09:56:52;;;;;;;;;;;;;;;;;;;;;
2022/11/04 10:07:25;;;;;;;7.40;1.70;;;12.30;99.90;;;;;;6039748;23;20037;-86
2022/11/04 10:10:16;;;;;;;6.20;1.90;;;12.40;99.90;;;;;;6064978;23;20045;-85
2022/11/04 10:13:22;;;;;;;8.85;2.17;;;12.50;99.90;;;;;;6089867;23;20137;-82
2022/11/04 10:16:09;;;;;;;7.82;1.77;;;12.50;99.90;;;;;;6242721;23;20000;-86
2022/11/04 10:19:10;;;;;;;6.43;1.63;;;12.60;99.90;;;;;;6241500;23;20343;-86
2022/11/04 10:21:48;;;;;;;6.82;2.10;;;12.70;99.90;;;;;;6242764;23;20016;-85
2022/11/04 10:24:14;;;;;;;7.32;1.90;;;12.70;99.90;;;;;;6215262;23;20022;-85
2022/11/04 10:27:03;;;;;;;8.80;2.15;;;12.70;99.90;;;;;;6214516;23;20034;-85
2022/11/04 10:29:55;;;;;;;5.88;1.67;;;12.80;99.90;;;;;;6241678;23;20004;-85
2022/11/04 10:32:39;;;;;;;4.65;1.58;;;12.80;99.90;;;;;;6242499;23;20008;-86
2022/11/04 10:35:26;;;;;;;7.55;1.90;;;12.80;99.90;;;;;;6214363;23;20036;-84
2022/11/04 10:37:56;;;;;;;5.85;1.50;;;12.80;99.90;;;;;;6241975;23;20008;-84
2022/11/04 10:40:31;;;;;;;8.25;2.03;;;12.80;99.90;;;;;;6241911;23;20024;-86
2022/11/04 10:43:01;;;;;;;6.80;1.70;;;12.90;99.90;;;;;;6241521;23;20454;-84
2022/11/04 10:45:35;;;;;;;6.65;1.20;;;13.00;99.90;;;;;;6190529;23;20012;-84
2022/11/04 10:48:12;;;;;;;10.40;1.77;;;12.90;99.90;;;;;;6214538;23;20004;-84
2022/11/04 10:50:58;;;;;;;5.40;1.50;;;12.90;99.90;;;;;;6214534;23;20366;-84
2022/11/04 10:53:27;;;;;;;9.48;1.50;;;12.90;99.90;;;;;;6214834;23;20414;-84
2022/11/04 10:56:28;;;;;;;6.22;1.52;;;12.90;99.90;;;;;;6241936;23;20027;-84
2022/11/04 10:58:59;;;;;;;8.07;1.85;;;12.90;99.90;;;;;;6137578;23;20328;-84
2022/11/04 11:01:33;;;;;;;5.60;1.30;;;12.90;99.90;;;;;;6240639;23;20031;-84
2022/11/04 11:04:00;;;;;;;5.80;1.50;;;12.90;99.90;;;;;;6188839;23;20469;-84
2022/11/04 11:06:34;;;;;;;7.20;1.50;;;12.90;99.90;;;;;;6214636;23;20431;-84
2022/11/04 11:09:20;;;;;;;6.97;1.60;;;12.90;99.90;;;;;;6189756;23;20020;-93
2022/11/04 11:11:50;;;;;;;9.00;1.98;;;12.90;99.90;;;;;;6240877;23;20079;-83
2022/11/04 11:14:28;;;;;;;7.85;1.30;;;12.90;99.90;;;;;;6214285;23;20062;-83
2022/11/04 11:17:21;;;;;;;8.27;1.63;;;13.00;99.90;;;;;;6240348;23;20399;-83
2022/11/04 11:25:50;;;;;;;13.27;3.65;;;13.00;99.90;;;;;;6215289;22;20023;-85
2022/11/04 11:28:24;;;;;;;9.90;2.70;;;13.00;99.90;;;;;;6272197;22;20439;-82
2022/11/04 11:30:51;;;;;;;8.40;2.15;;;13.10;99.90;;;;;;6271091;22;20082;-82
2022/11/04 11:33:27;;;;;;;8.13;1.80;;;13.00;99.90;;;;;;6271092;22;20003;-82
2022/11/04 11:36:01;;;;;;;8.65;2.03;;;13.00;99.90;;;;;;6271576;22;20004;-82
2022/11/04 11:38:29;;;;;;;7.32;1.58;;;13.00;99.90;;;;;;6271563;22;20000;-82
2022/11/04 11:41:22;;;;;;;5.88;2.10;;;13.00;99.90;;;;;;6270607;22;20387;-82
2022/11/04 11:43:52;;;;;;;8.27;1.90;;;12.90;99.90;;;;;;6270939;22;20004;-82
2022/11/04 11:46:29;;;;;;;10.15;2.85;;;13.00;99.90;;;;;;6270882;22;20000;-82
2022/11/04 11:49:01;;;;;;;10.43;3.28;;;13.00;99.90;;;;;;6243501;22;20003;-84
2022/11/04 11:51:36;;;;;;;9.35;3.05;;;12.90;99.90;;;;;;6243793;22;20393;-83
2022/11/04 11:54:15;;;;;;;9.57;2.85;;;12.90;99.90;;;;;;6270922;22;20049;-83
2022/11/04 11:56:47;;;;;;;7.03;2.50;;;12.90;99.90;;;;;;6243973;22;20075;-82
2022/11/04 11:59:42;;;;;;;9.93;2.75;;;12.90;99.90;;;;;;6271077;22;20011;-83
2022/11/04 12:02:27;;;;;;;10.68;2.13;;;12.90;99.90;;;;;;6237429;22;20012;-82
2022/11/04 12:04:55;;;;;;;7.30;2.17;;;12.90;99.90;;;;;;6270501;22;20011;-83
2022/11/04 12:07:42;;;;;;;7.40;2.45;;;12.90;99.90;;;;;;6243481;22;20019;-83
2022/11/04 12:10:14;;;;;;;9.43;1.95;;;13.00;99.90;;;;;;6243842;22;20012;-83
2022/11/04 12:12:51;;;;;;;10.68;2.85;;;13.00;99.90;;;;;;6270717;22;20007;-82
2022/11/04 12:15:54;;;;;;;7.32;2.35;;;13.00;99.90;;;;;;6271006;22;20007;-81
2022/11/04 12:19:00;;;;;;;8.95;2.47;;;13.00;99.90;;;;;;6273366;22;20033;-90
2022/11/04 12:21:32;;;;;;;9.77;2.45;;;13.00;99.90;;;;;;6270601;22;20341;-85
2022/11/04 12:24:02;;;;;;;8.57;2.67;;;13.10;99.90;;;;;;6249959;22;20003;-83
2022/11/04 12:26:28;;;;;;;8.70;2.70;;;13.10;99.90;;;;;;6249274;22;20517;-84
2022/11/04 12:29:26;;;;;;;7.30;2.28;;;13.10;99.90;;;;;;6270755;22;20030;-84
2022/11/04 12:32:17;;;;;;;12.50;4.15;;;13.10;99.90;;;;;;6269802;22;20004;-84
2022/11/04 12:35:04;;;;;;;9.90;2.70;;;13.20;99.90;;;;;;6270022;22;20458;-84
2022/11/04 12:37:59;;;;;;;9.18;2.60;;;13.20;99.90;;;;;;6270889;22;20145;-84
2022/11/04 12:40:30;;;;;;;9.00;2.63;;;13.20;99.90;;;;;;6270129;22;20031;-84
2022/11/04 12:43:27;;;;;;;10.07;3.05;;;13.20;99.90;;;;;;6271885;22;20148;-83
2022/11/04 12:46:11;;;;;;;7.97;2.40;;;13.20;99.90;;;;;;6271475;22;20045;-83
2022/11/04 12:49:15;;;;;;;8.10;2.05;;;13.30;99.90;;;;;;6270547;22;20014;-83
2022/11/04 12:52:17;;;;;;;10.13;2.50;;;13.20;99.90;;;;;;6272319;22;20016;-83
2022/11/04 12:55:05;;;;;;;9.80;2.90;;;13.30;99.90;;;;;;6117704;23;20365;-83
2022/11/04 12:57:45;;;;;;;11.93;3.92;;;13.30;99.90;;;;;;6263075;22;20015;-83
2022/11/04 13:00:14;;;;;;;12.40;4.53;;;13.30;99.90;;;;;;6271360;22;20107;-83
2022/11/04 13:02:47;;;;;;;11.13;3.97;;;13.40;99.90;;;;;;6270064;22;20011;-82
2022/11/04 13:05:21;;;;;;;13.85;3.95;;;13.40;99.90;;;;;;6270089;22;20007;-82
2022/11/04 13:07:53;;;;;;;9.82;3.50;;;13.40;99.90;;;;;;6243359;22;20007;-82
2022/11/04 13:10:32;;;;;;;12.68;4.05;;;13.50;99.90;;;;;;6270652;22;20078;-83
2022/11/04 13:13:00;;;;;;;8.73;3.28;;;13.40;99.90;;;;;;6242852;22;20007;-83
2022/11/04 13:15:29;;;;;;;10.65;3.20;;;13.50;99.90;;;;;;6270318;22;20012;-83
2022/11/04 13:18:03;;;;;;;11.05;2.75;;;13.50;99.90;;;;;;6269624;22;20073;-83
2022/11/04 13:21:02;;;;;;;8.02;3.20;;;13.40;99.90;;;;;;6269999;22;20011;-83
2022/11/04 13:23:59;;;;;;;7.97;3.15;;;13.40;99.90;;;;;;6270370;22;20004;-83
2022/11/04 13:26:25;;;;;;;10.25;3.15;;;13.40;99.90;;;;;;6270930;22;20098;-84
2022/11/04 13:29:14;;;;;;;8.70;3.13;;;13.30;99.90;;;;;;6270920;22;20000;-84
2022/11/04 13:31:57;;;;;;;7.07;2.80;;;13.40;99.90;;;;;;6270647;22;20087;-85
2022/11/04 13:34:41;;;;;;;9.40;2.53;;;13.50;99.90;;;;;;6269975;22;20015;-85
2022/11/04 13:37:23;;;;;;;7.75;2.92;;;13.40;99.90;;;;;;6271246;22;20004;-85
2022/11/04 13:39:55;;;;;;;7.72;2.80;;;13.40;99.90;;;;;;6271034;22;20015;-83
2022/11/04 13:42:36;;;;;;;11.32;3.08;;;13.50;99.90;;;;;;6270173;22;20023;-86
2022/11/04 13:45:12;;;;;;;9.55;2.22;;;13.50;99.90;;;;;;6218684;22;20066;-86
2022/11/04 13:47:49;;;;;;;13.15;3.28;;;13.40;99.90;;;;;;6242906;22;20057;-85
2022/11/04 13:50:35;;;;;;;10.38;2.35;;;13.40;99.90;;;;;;6270813;22;20072;-86
2022/11/04 13:53:03;;;;;;;10.82;2.85;;;13.30;99.90;;;;;;6269860;22;20315;-85
2022/11/04 13:55:29;;;;;;;8.43;2.75;;;13.40;99.90;;;;;;6243577;22;20438;-85
2022/11/04 13:57:58;;;;;;;14.82;3.28;;;13.30;99.90;;;;;;6269959;22;20007;-86
2022/11/04 14:00:29;;;;;;;9.80;2.75;;;13.20;99.90;;;;;;6270802;22;20004;-86
2022/11/04 14:03:02;;;;;;;7.30;2.13;;;13.20;99.90;;;;;;6269680;22;20031;-85
2022/11/04 14:05:35;;;;;;;10.93;2.47;;;13.20;99.90;;;;;;6271842;22;20626;-85
2022/11/04 14:08:01;;;;;;;7.55;2.15;;;13.20;99.90;;;;;;6245728;22;20004;-86
2022/11/04 14:10:48;;;;;;;6.57;1.90;;;13.10;99.90;;;;;;6272100;22;20050;-85
2022/11/04 14:13:42;;;;;;;10.05;1.80;;;13.10;99.90;;;;;;6272438;22;20008;-86
2022/11/04 14:16:24;;;;;;;10.38;2.10;;;13.10;99.90;;;;;;6243870;22;20406;-85
2022/11/04 14:18:53;;;;;;;7.25;2.15;;;13.10;99.90;;;;;;6270743;22;20016;-86
2022/11/04 14:21:26;;;;;;;6.90;2.03;;;13.10;99.90;;;;;;6271013;22;20335;-85
2022/11/04 14:24:01;;;;;;;11.07;1.80;;;13.10;99.90;;;;;;6268470;22;20007;-86
2022/11/04 14:26:49;;;;;;;7.65;1.83;;;13.00;99.90;;;;;;6270035;22;20018;-86
2022/11/04 14:29:24;;;;;;;5.78;1.90;;;13.10;99.90;;;;;;6272187;22;20087;-86
2022/11/04 14:31:53;;;;;;;9.10;2.28;;;13.10;99.90;;;;;;6243137;22;20012;-86
2022/11/04 14:34:36;;;;;;;6.57;1.58;;;13.10;99.90;;;;;;6271526;22;20095;-86
2022/11/04 14:37:20;;;;;;;6.25;1.65;;;13.10;99.90;;;;;;6244491;22;20012;-85
2022/11/04 14:39:55;;;;;;;5.97;1.50;;;13.10;99.90;;;;;;6271958;22;20476;-86
2022/11/04 14:42:53;;;;;;;8.80;2.20;;;13.10;99.90;;;;;;6242910;22;20296;-86
2022/11/04 14:45:23;;;;;;;8.70;2.80;;;13.10;99.90;;;;;;6241741;22;20004;-85
2022/11/04 14:51:39;;;;;;;6.85;1.80;;;13.10;99.90;;;;;;6273281;22;20022;-88
2022/11/04 14:54:20;;;;;;;8.55;2.08;;;13.10;99.90;;;;;;6272009;22;20037;-87
2022/11/04 14:56:46;;;;;;;8.35;2.05;;;13.10;99.90;;;;;;6245847;22;20169;-83
2022/11/04 14:59:26;;;;;;;9.02;2.40;;;13.10;99.90;;;;;;6273955;22;20099;-84
2022/11/04 15:01:53;;;;;;;11.10;2.35;;;13.10;99.90;;;;;;6271753;22;20004;-84
2022/11/04 15:20:25;;;;;;;12.55;3.33;;;13.00;99.90;;;;;;6239175;22;20038;-91
2022/11/04 15:23:01;;;;;;;8.85;2.70;;;13.00;99.90;;;;;;6271709;22;20023;-87
2022/11/04 15:33:16;;;;;;;8.52;2.38;;;12.80;99.90;;;;;;6121130;23;20040;-92
2022/11/04 15:38:26;;;;;;;9.32;2.58;;;12.80;99.90;;;;;;6211304;23;20021;-88
2022/11/04 15:40:52;;;;;;;13.95;3.13;;;12.70;99.90;;;;;;6185818;23;20084;-88
2022/11/04 15:43:19;;;;;;;6.10;2.10;;;12.70;99.90;;;;;;6212285;23;20020;-87
2022/11/04 15:45:45;;;;;;;6.82;2.22;;;12.70;99.90;;;;;;6211406;23;20221;-87
2022/11/04 15:48:33;;;;;;;8.85;2.95;;;12.80;99.90;;;;;;6184264;23;20023;-87
2022/11/04 15:51:23;;;;;;;10.40;3.03;;;12.80;99.90;;;;;;6211680;23;20099;-87
2022/11/04 15:54:01;;;;;;;8.00;2.90;;;12.70;99.90;;;;;;6211527;23;20012;-87
2022/11/04 15:56:31;;;;;;;11.53;3.70;;;12.70;99.90;;;;;;6211329;23;20016;-87
2022/11/04 15:58:59;;;;;;;15.88;4.53;;;12.80;99.90;;;;;;6211060;23;20013;-87
2022/11/04 16:01:27;;;;;;;11.48;4.18;;;12.80;99.90;;;;;;6212351;23;20004;-87
2022/11/04 16:03:56;;;;;;;10.40;4.10;;;12.80;99.90;;;;;;6184643;23;20008;-87
2022/11/04 16:06:33;;;;;;;13.07;4.53;;;12.80;99.90;;;;;;6212050;23;20012;-87
2022/11/04 16:09:26;;;;;;;12.52;4.43;;;12.80;99.90;;;;;;6185648;23;20442;-87
2022/11/04 16:12:10;;;;;;;13.88;4.28;;;12.80;99.90;;;;;;6183392;23;20439;-88
2022/11/04 16:14:36;;;;;;;16.10;4.72;;;12.80;99.90;;;;;;6212780;23;20019;-87
2022/11/04 16:17:05;;;;;;;8.95;3.92;;;12.80;99.90;;;;;;6212486;23;20178;-87
2022/11/04 16:19:34;;;;;;;14.25;4.63;;;12.80;99.90;;;;;;6211408;23;20034;-87
2022/11/04 16:22:08;;;;;;;16.38;3.85;;;12.70;99.90;;;;;;6213979;23;20040;-87
2022/11/04 16:24:39;;;;;;;10.90;3.63;;;12.80;99.90;;;;;;6187311;23;20005;-87
2022/11/04 16:27:17;;;;;;;13.23;4.78;;;12.80;99.90;;;;;;6186797;23;20005;-87
2022/11/04 16:29:51;;;;;;;13.52;4.70;;;12.70;99.90;;;;;;6190174;23;20021;-86
2022/11/04 16:32:41;;;;;;;10.57;4.38;;;12.70;99.90;;;;;;6196597;23;20017;-86
2022/11/04 16:35:17;;;;;;;11.88;4.55;;;12.70;99.90;;;;;;6223985;23;20369;-86
2022/11/04 16:37:44;;;;;;;9.77;4.20;;;12.70;99.90;;;;;;6222541;23;20019;-86
2022/11/04 16:40:10;;;;;;;12.13;4.13;;;12.70;99.90;;;;;;6212515;23;20009;-87
2022/11/04 16:42:36;;;;;;;14.88;5.32;;;12.60;99.90;;;;;;6211975;23;20085;-87
2022/11/04 16:45:03;;;;;;;16.10;5.10;;;12.70;99.90;;;;;;6185407;23;20392;-87
2022/11/04 16:47:31;;;;;;;11.25;4.43;;;12.60;99.90;;;;;;6211054;23;20096;-87
2022/11/04 16:49:59;;;;;;;13.25;4.90;;;12.70;99.90;;;;;;6184431;23;20099;-87
2022/11/04 16:52:26;;;;;;;12.40;4.93;;;12.60;99.90;;;;;;6212092;23;20009;-86
2022/11/04 16:54:55;;;;;;;11.27;5.18;;;12.60;99.90;;;;;;6211592;23;20012;-87
2022/11/04 16:57:22;;;;;;;15.23;6.75;;;12.60;99.90;;;;;;6211464;23;20021;-87